Time;durP1;ratioP1;P1;durP2;ratioP2;P2;SDS_P1;SDS_P2;PMS_P1;PMS_P2;Temp;Humidity;BMP_temperature;BMP_pressure;BME280_temperature;BME280_humidity;BME280_pressure;Samples;Min_cycle;Max_cycle;Signal;HPM_P1;HPM_P2
2021/03/31 00:01:26;;;;;;;10.97;8.50;;;;;;;;;;5088441;28;20762;-92
2021/03/31 00:03:53;;;;;;;12.00;9.10;;;;;;;;;;5079100;28;20447;-96
2021/03/31 00:06:19;;;;;;;10.87;8.87;;;;;;;;;;5067959;28;20459;-95
2021/03/31 00:08:45;;;;;;;13.63;8.77;;;;;;;;;;5077668;28;20465;-95
2021/03/31 00:11:11;;;;;;;12.40;9.30;;;;;;;;;;5078593;28;20455;-95
2021/03/31 00:13:43;;;;;;;13.00;9.55;;;;;;;;;;5079370;28;20557;-96
2021/03/31 00:16:09;;;;;;;16.30;8.70;;;;;;;;;;5079483;28;20222;-96
2021/03/31 00:18:36;;;;;;;14.23;8.83;;;;;;;;;;5081139;28;20457;-96
2021/03/31 00:21:03;;;;;;;12.63;8.90;;;;;;;;;;5069611;28;20464;-94
2021/03/31 00:23:41;;;;;;;10.68;8.45;;;;;;;;;;5072452;28;20445;-96
2021/03/31 00:26:07;;;;;;;13.05;8.65;;;;;;;;;;5076638;28;20257;-96
2021/03/31 00:28:33;;;;;;;12.25;8.90;;;;;;;;;;5074012;28;20205;-95
2021/03/31 00:30:59;;;;;;;11.15;7.75;;;;;;;;;;5080714;28;20210;-96
2021/03/31 00:33:25;;;;;;;14.77;9.02;;;;;;;;;;5091158;28;20247;-96
2021/03/31 00:35:51;;;;;;;9.57;7.88;;;;;;;;;;5086086;28;20201;-96
2021/03/31 00:38:19;;;;;;;11.40;9.50;;;;;;;;;;5078540;28;20188;-96
2021/03/31 00:40:46;;;;;;;13.35;9.45;;;;;;;;;;5080162;28;22988;-95
2021/03/31 00:43:12;;;;;;;12.45;9.30;;;;;;;;;;5075878;28;20874;-96
2021/03/31 00:45:59;;;;;;;14.73;8.60;;;;;;;;;;5079751;28;20222;-96
2021/03/31 00:48:25;;;;;;;11.32;8.48;;;;;;;;;;5072465;28;20219;-95
2021/03/31 00:50:53;;;;;;;11.23;8.50;;;;;;;;;;5081142;28;20205;-96
2021/03/31 00:53:21;;;;;;;10.63;8.20;;;;;;;;;;5066866;28;20492;-96
2021/03/31 00:55:48;;;;;;;9.70;7.57;;;;;;;;;;5083944;28;20200;-96
2021/03/31 00:58:23;;;;;;;11.35;8.45;;;;;;;;;;5068476;28;20215;-96
2021/03/31 01:00:49;;;;;;;10.52;7.80;;;;;;;;;;5088720;28;20205;-96
2021/03/31 01:03:15;;;;;;;9.50;8.50;;;;;;;;;;5079948;28;20201;-96
2021/03/31 01:05:41;;;;;;;9.45;7.90;;;;;;;;;;5074852;28;20196;-95
2021/03/31 01:08:07;;;;;;;10.33;8.20;;;;;;;;;;5071570;28;20239;-94
2021/03/31 01:10:36;;;;;;;10.85;8.85;;;;;;;;;;5085598;28;20433;-96
2021/03/31 01:13:17;;;;;;;12.45;9.57;;;;;;;;;;5076636;28;20220;-96
2021/03/31 01:15:47;;;;;;;13.32;8.40;;;;;;;;;;5052422;28;20273;-95
2021/03/31 01:18:18;;;;;;;9.50;7.47;;;;;;;;;;5081301;28;20239;-96
2021/03/31 01:20:55;;;;;;;12.30;8.40;;;;;;;;;;5076515;28;20201;-95
2021/03/31 01:23:41;;;;;;;10.88;8.45;;;;;;;;;;5056446;28;20674;-95
2021/03/31 01:26:12;;;;;;;11.50;7.18;;;;;;;;;;5079338;28;20234;-96
2021/03/31 01:28:45;;;;;;;9.07;8.07;;;;;;;;;;5070263;28;20212;-95
2021/03/31 01:31:20;;;;;;;9.55;8.07;;;;;;;;;;5082959;28;20698;-94
2021/03/31 01:34:06;;;;;;;10.52;8.00;;;;;;;;;;5070594;28;20237;-94
2021/03/31 01:36:34;;;;;;;10.10;8.25;;;;;;;;;;5028271;28;20209;-95
2021/03/31 01:39:01;;;;;;;10.88;8.15;;;;;;;;;;5073621;28;20234;-94
2021/03/31 01:41:29;;;;;;;14.18;9.07;;;;;;;;;;5090820;28;20194;-96
2021/03/31 01:43:57;;;;;;;11.48;8.93;;;;;;;;;;5078293;28;20189;-96
2021/03/31 01:46:25;;;;;;;12.32;8.88;;;;;;;;;;5051289;28;20177;-96
2021/03/31 01:48:52;;;;;;;11.82;9.00;;;;;;;;;;5064027;28;20288;-96
2021/03/31 01:51:19;;;;;;;11.25;8.45;;;;;;;;;;5070324;28;20214;-96
2021/03/31 01:53:47;;;;;;;12.07;8.13;;;;;;;;;;5082482;28;20231;-96
2021/03/31 01:56:13;;;;;;;11.10;8.25;;;;;;;;;;5072136;28;20205;-96
2021/03/31 01:58:40;;;;;;;13.48;9.70;;;;;;;;;;5079459;28;20243;-93
2021/03/31 02:01:07;;;;;;;14.85;9.55;;;;;;;;;;5076428;28;20210;-96
2021/03/31 02:03:34;;;;;;;12.63;8.75;;;;;;;;;;5057095;28;20233;-96
2021/03/31 02:06:00;;;;;;;17.00;9.07;;;;;;;;;;5083325;28;20276;-94
2021/03/31 02:08:27;;;;;;;11.60;9.35;;;;;;;;;;5073373;28;20210;-95
2021/03/31 02:10:54;;;;;;;12.38;9.35;;;;;;;;;;5081179;28;20215;-96
2021/03/31 02:13:21;;;;;;;10.85;8.52;;;;;;;;;;5078063;28;20210;-96
2021/03/31 02:15:48;;;;;;;18.27;10.45;;;;;;;;;;5078279;28;20211;-96
2021/03/31 02:18:15;;;;;;;12.98;10.13;;;;;;;;;;5079056;28;20187;-96
2021/03/31 02:20:41;;;;;;;13.63;9.98;;;;;;;;;;5087647;28;20552;-96
2021/03/31 02:23:07;;;;;;;15.77;9.85;;;;;;;;;;5075630;28;20203;-96
2021/03/31 02:25:34;;;;;;;13.93;10.50;;;;;;;;;;5062855;28;20262;-96
2021/03/31 02:28:01;;;;;;;12.95;10.15;;;;;;;;;;5081908;28;20305;-95
2021/03/31 02:30:28;;;;;;;17.40;10.60;;;;;;;;;;5074236;28;20267;-94
2021/03/31 02:32:57;;;;;;;13.93;10.35;;;;;;;;;;5068254;28;20200;-96
2021/03/31 02:35:23;;;;;;;13.73;10.93;;;;;;;;;;5065624;28;20275;-95
2021/03/31 02:37:51;;;;;;;15.00;11.30;;;;;;;;;;5072843;28;20236;-96
2021/03/31 02:40:18;;;;;;;18.15;12.40;;;;;;;;;;5080233;28;20216;-96
2021/03/31 02:42:46;;;;;;;20.77;11.73;;;;;;;;;;5063893;28;20209;-93
2021/03/31 02:45:14;;;;;;;15.10;11.80;;;;;;;;;;5073879;28;20263;-96
2021/03/31 02:47:41;;;;;;;19.75;12.50;;;;;;;;;;5086008;28;20212;-94
2021/03/31 02:50:09;;;;;;;22.58;15.10;;;;;;;;;;5078386;28;20722;-95
2021/03/31 02:52:35;;;;;;;21.38;15.85;;;;;;;;;;5064784;28;20213;-95
2021/03/31 02:55:01;;;;;;;20.63;15.98;;;;;;;;;;5085290;28;20222;-96
2021/03/31 02:57:28;;;;;;;14.63;11.20;;;;;;;;;;5075357;28;20216;-96
2021/03/31 02:59:54;;;;;;;14.38;10.18;;;;;;;;;;5084247;28;20226;-95
2021/03/31 03:02:21;;;;;;;15.75;9.93;;;;;;;;;;5061113;28;20199;-94
2021/03/31 03:04:47;;;;;;;17.58;12.35;;;;;;;;;;5064118;28;20200;-95
2021/03/31 03:07:14;;;;;;;16.17;11.07;;;;;;;;;;5068858;28;20235;-96
2021/03/31 03:09:41;;;;;;;17.40;11.75;;;;;;;;;;5081632;28;20206;-94
2021/03/31 03:12:07;;;;;;;16.73;11.52;;;;;;;;;;5079071;28;20216;-94
2021/03/31 03:14:34;;;;;;;17.17;11.18;;;;;;;;;;5074416;28;20226;-95
2021/03/31 03:17:00;;;;;;;13.20;10.80;;;;;;;;;;5070860;28;20203;-96
2021/03/31 03:19:27;;;;;;;20.42;12.32;;;;;;;;;;5082149;28;20203;-94
2021/03/31 03:21:54;;;;;;;18.25;10.32;;;;;;;;;;5080490;28;20210;-93
2021/03/31 03:24:20;;;;;;;16.00;10.52;;;;;;;;;;5087484;28;20564;-95
2021/03/31 03:26:46;;;;;;;15.88;10.77;;;;;;;;;;5069421;28;20232;-94
2021/03/31 03:29:13;;;;;;;18.42;12.00;;;;;;;;;;5079796;28;20189;-95
2021/03/31 03:31:39;;;;;;;27.48;13.00;;;;;;;;;;5072383;28;20212;-95
2021/03/31 03:34:07;;;;;;;22.23;12.10;;;;;;;;;;5072876;28;20236;-95
2021/03/31 03:36:34;;;;;;;16.10;10.80;;;;;;;;;;5072513;28;20203;-95
2021/03/31 03:39:00;;;;;;;19.58;12.30;;;;;;;;;;5075504;28;20213;-95
2021/03/31 03:41:26;;;;;;;16.60;12.77;;;;;;;;;;5064203;28;20204;-96
2021/03/31 03:43:54;;;;;;;17.02;11.40;;;;;;;;;;5070260;28;20229;-96
2021/03/31 03:46:35;;;;;;;18.33;13.05;;;;;;;;;;5073825;28;20203;-96
2021/03/31 03:49:02;;;;;;;20.92;13.80;;;;;;;;;;5063743;28;20211;-96
2021/03/31 03:51:29;;;;;;;22.00;10.50;;;;;;;;;;5078568;28;20214;-96
2021/03/31 03:53:57;;;;;;;23.77;13.00;;;;;;;;;;5082518;28;20278;-96
2021/03/31 03:56:27;;;;;;;20.02;13.27;;;;;;;;;;5084084;28;20207;-96
2021/03/31 03:58:54;;;;;;;22.25;11.57;;;;;;;;;;5052500;28;20200;-96
2021/03/31 04:01:21;;;;;;;18.30;11.73;;;;;;;;;;5058096;28;20231;-96
2021/03/31 04:03:48;;;;;;;21.50;12.13;;;;;;;;;;5061190;28;20200;-96
2021/03/31 04:06:14;;;;;;;14.85;10.90;;;;;;;;;;5076818;28;20183;-96
2021/03/31 04:08:57;;;;;;;15.38;11.35;;;;;;;;;;5082222;28;20208;-96
2021/03/31 04:11:24;;;;;;;18.30;11.55;;;;;;;;;;5046310;28;20206;-95
2021/03/31 04:13:50;;;;;;;18.25;12.07;;;;;;;;;;5064041;28;20218;-95
2021/03/31 04:16:24;;;;;;;22.15;12.85;;;;;;;;;;5059416;28;20200;-96
2021/03/31 04:18:50;;;;;;;22.02;14.02;;;;;;;;;;5069691;28;20226;-96
2021/03/31 04:21:17;;;;;;;23.20;15.05;;;;;;;;;;5088935;28;20191;-96
2021/03/31 04:23:44;;;;;;;25.42;15.90;;;;;;;;;;5073321;28;20196;-96
2021/03/31 04:26:13;;;;;;;20.73;13.93;;;;;;;;;;5081242;28;20232;-96
2021/03/31 04:28:54;;;;;;;25.15;15.10;;;;;;;;;;5075781;28;20189;-96
2021/03/31 04:31:22;;;;;;;24.35;15.18;;;;;;;;;;5072241;28;20218;-95
2021/03/31 04:33:48;;;;;;;21.45;13.60;;;;;;;;;;5076079;28;20231;-96
2021/03/31 04:36:14;;;;;;;27.98;14.77;;;;;;;;;;5079042;28;20208;-96
2021/03/31 04:38:44;;;;;;;16.80;11.82;;;;;;;;;;5085885;28;20187;-96
2021/03/31 04:43:53;;;;;;;18.83;13.43;;;;;;;;;;5088891;28;20211;-95
2021/03/31 04:46:19;;;;;;;17.83;13.68;;;;;;;;;;5080284;28;20293;-96
2021/03/31 04:48:46;;;;;;;23.60;14.98;;;;;;;;;;5084024;28;20233;-95
2021/03/31 04:51:12;;;;;;;24.23;14.73;;;;;;;;;;5080774;28;20805;-95
2021/03/31 04:53:38;;;;;;;22.33;14.40;;;;;;;;;;5071085;28;20714;-96
2021/03/31 04:56:06;;;;;;;21.15;14.77;;;;;;;;;;5065115;28;20215;-96
2021/03/31 04:58:32;;;;;;;20.40;15.15;;;;;;;;;;5084009;28;20213;-95
2021/03/31 05:00:59;;;;;;;19.77;13.70;;;;;;;;;;5082505;28;20207;-95
2021/03/31 05:03:25;;;;;;;23.02;13.73;;;;;;;;;;5082477;28;20209;-96
2021/03/31 05:05:52;;;;;;;18.88;11.05;;;;;;;;;;5064340;28;20207;-93
2021/03/31 05:08:18;;;;;;;13.90;10.68;;;;;;;;;;5073035;28;20211;-94
2021/03/31 05:10:45;;;;;;;19.63;11.63;;;;;;;;;;5073466;28;20209;-94
2021/03/31 05:13:11;;;;;;;19.40;14.30;;;;;;;;;;5081317;28;20670;-95
2021/03/31 05:15:37;;;;;;;17.13;13.30;;;;;;;;;;5086167;28;20220;-94
2021/03/31 05:18:03;;;;;;;29.42;16.42;;;;;;;;;;5082126;28;20443;-95
2021/03/31 05:20:29;;;;;;;27.90;19.77;;;;;;;;;;5067534;28;20727;-96
2021/03/31 05:22:56;;;;;;;30.95;18.98;;;;;;;;;;5072945;28;20245;-96
2021/03/31 05:25:22;;;;;;;28.42;18.33;;;;;;;;;;5067456;28;20228;-95
2021/03/31 05:27:48;;;;;;;29.23;17.50;;;;;;;;;;5069088;28;20239;-95
2021/03/31 05:30:14;;;;;;;33.05;20.52;;;;;;;;;;5068561;28;20469;-95
2021/03/31 05:32:40;;;;;;;25.00;17.07;;;;;;;;;;5068135;28;20212;-95
2021/03/31 05:35:08;;;;;;;23.60;17.25;;;;;;;;;;5069476;28;20547;-95
2021/03/31 05:37:34;;;;;;;33.97;20.77;;;;;;;;;;5068747;28;20202;-95
2021/03/31 05:40:01;;;;;;;42.30;25.00;;;;;;;;;;5068856;28;20242;-93
2021/03/31 05:42:27;;;;;;;38.97;25.80;;;;;;;;;;5056681;28;20456;-95
2021/03/31 05:44:53;;;;;;;50.90;30.60;;;;;;;;;;5072690;28;20456;-94
2021/03/31 05:47:23;;;;;;;46.83;30.03;;;;;;;;;;5063014;28;20438;-95
2021/03/31 05:49:49;;;;;;;43.97;29.57;;;;;;;;;;5065605;28;20457;-96
2021/03/31 05:52:15;;;;;;;38.20;25.53;;;;;;;;;;5079542;28;20440;-96
2021/03/31 05:54:41;;;;;;;32.63;20.60;;;;;;;;;;5077880;28;20495;-95
2021/03/31 05:57:08;;;;;;;22.40;17.17;;;;;;;;;;5080270;28;20449;-94
2021/03/31 05:59:35;;;;;;;23.33;17.80;;;;;;;;;;5070428;28;20462;-94
2021/03/31 06:02:01;;;;;;;22.07;16.60;;;;;;;;;;5072740;28;20464;-95
2021/03/31 06:04:27;;;;;;;23.53;17.97;;;;;;;;;;5057848;28;20457;-95
2021/03/31 06:06:53;;;;;;;21.53;16.60;;;;;;;;;;5075555;28;20959;-96
2021/03/31 06:09:19;;;;;;;19.60;14.00;;;;;;;;;;5077952;28;20857;-94
2021/03/31 06:11:46;;;;;;;17.73;12.97;;;;;;;;;;5087152;28;20446;-94
2021/03/31 06:14:13;;;;;;;34.27;26.33;;;;;;;;;;5085367;28;20485;-94
2021/03/31 06:16:44;;;;;;;27.40;20.90;;;;;;;;;;5062919;28;20446;-94
2021/03/31 06:19:17;;;;;;;35.87;26.77;;;;;;;;;;5070331;28;20560;-94
2021/03/31 06:21:43;;;;;;;29.73;23.20;;;;;;;;;;5072796;28;20815;-95
2021/03/31 06:24:21;;;;;;;27.23;19.87;;;;;;;;;;5079583;28;20433;-96
2021/03/31 06:26:47;;;;;;;24.17;18.90;;;;;;;;;;5063969;28;20729;-95
2021/03/31 06:29:13;;;;;;;19.03;16.00;;;;;;;;;;5071805;28;20924;-95
2021/03/31 06:31:40;;;;;;;21.67;15.50;;;;;;;;;;5068134;28;20515;-94
2021/03/31 06:34:07;;;;;;;24.07;14.80;;;;;;;;;;5076225;28;20583;-95
2021/03/31 06:36:34;;;;;;;18.27;14.23;;;;;;;;;;5067931;28;20595;-95
2021/03/31 06:39:00;;;;;;;18.60;14.47;;;;;;;;;;5074592;28;20563;-93
2021/03/31 06:41:29;;;;;;;17.17;13.60;;;;;;;;;;5076839;28;20521;-93
2021/03/31 06:44:07;;;;;;;17.10;14.40;;;;;;;;;;5071125;28;20515;-94
2021/03/31 06:46:41;;;;;;;19.87;15.50;;;;;;;;;;5061180;28;20452;-94
2021/03/31 06:49:08;;;;;;;18.97;15.67;;;;;;;;;;5072625;28;20465;-93
2021/03/31 06:51:34;;;;;;;22.67;16.87;;;;;;;;;;5076728;28;20455;-94
2021/03/31 06:54:11;;;;;;;25.73;16.27;;;;;;;;;;5068668;28;20492;-93
2021/03/31 06:56:38;;;;;;;19.70;14.77;;;;;;;;;;5073157;28;20446;-95
2021/03/31 06:59:04;;;;;;;17.23;13.90;;;;;;;;;;5050426;28;20433;-94
2021/03/31 07:01:31;;;;;;;15.77;13.03;;;;;;;;;;5055372;28;20455;-93
2021/03/31 07:03:59;;;;;;;17.03;13.00;;;;;;;;;;5060209;28;20442;-93
2021/03/31 07:06:25;;;;;;;16.47;13.67;;;;;;;;;;5056444;28;21055;-92
2021/03/31 07:08:52;;;;;;;18.10;14.00;;;;;;;;;;5060715;28;20584;-94
2021/03/31 07:11:34;;;;;;;17.93;12.87;;;;;;;;;;5073302;28;20553;-94
2021/03/31 07:14:01;;;;;;;17.37;13.50;;;;;;;;;;5068378;28;20485;-94
2021/03/31 07:16:27;;;;;;;19.07;13.40;;;;;;;;;;5080675;28;20456;-94
2021/03/31 07:19:18;;;;;;;13.90;11.87;;;;;;;;;;5077265;28;20449;-96
2021/03/31 07:21:46;;;;;;;14.37;12.57;;;;;;;;;;5072031;28;20471;-95
2021/03/31 07:24:15;;;;;;;14.10;12.47;;;;;;;;;;5057679;28;20475;-93
2021/03/31 07:26:42;;;;;;;17.83;12.80;;;;;;;;;;5060536;28;21088;-94
2021/03/31 07:29:09;;;;;;;13.00;11.70;;;;;;;;;;5067871;28;20459;-95
2021/03/31 07:31:35;;;;;;;19.77;15.37;;;;;;;;;;5068856;28;20489;-93
2021/03/31 07:34:10;;;;;;;19.53;14.70;;;;;;;;;;5067207;28;20492;-94
2021/03/31 07:36:36;;;;;;;17.87;14.37;;;;;;;;;;5064382;28;20443;-94
2021/03/31 07:39:07;;;;;;;16.17;12.50;;;;;;;;;;5076135;28;20451;-95
2021/03/31 07:41:35;;;;;;;19.57;12.93;;;;;;;;;;5052123;28;21001;-94
2021/03/31 07:44:01;;;;;;;13.33;11.93;;;;;;;;;;5067101;28;20967;-93
2021/03/31 07:46:29;;;;;;;13.40;11.87;;;;;;;;;;5067557;28;20468;-93
2021/03/31 07:48:56;;;;;;;15.93;12.90;;;;;;;;;;5066717;28;20543;-94
2021/03/31 07:51:24;;;;;;;16.50;13.23;;;;;;;;;;5062322;28;20483;-93
2021/03/31 07:53:50;;;;;;;17.87;13.93;;;;;;;;;;5071878;28;20531;-93
2021/03/31 07:56:18;;;;;;;15.13;13.33;;;;;;;;;;5077927;28;20455;-93
2021/03/31 07:59:07;;;;;;;14.03;12.47;;;;;;;;;;5084063;28;20486;-94
2021/03/31 08:01:34;;;;;;;14.27;9.90;;;;;;;;;;5059441;28;20461;-93
2021/03/31 08:04:01;;;;;;;12.90;8.70;;;;;;;;;;5074780;28;20515;-96
2021/03/31 08:06:30;;;;;;;11.37;9.60;;;;;;;;;;5080544;28;20789;-94
2021/03/31 08:09:03;;;;;;;13.50;10.13;;;;;;;;;;5072856;28;20460;-94
2021/03/31 08:12:00;;;;;;;10.50;9.40;;;;;;;;;;5070394;28;20943;-94
2021/03/31 08:14:46;;;;;;;14.13;10.90;;;;;;;;;;5076483;28;20494;-93
2021/03/31 08:17:13;;;;;;;15.77;10.80;;;;;;;;;;5069203;28;20455;-93
2021/03/31 08:19:41;;;;;;;12.27;10.30;;;;;;;;;;5070383;28;20488;-94
2021/03/31 08:22:24;;;;;;;12.93;10.57;;;;;;;;;;5071941;28;20457;-94
2021/03/31 08:24:52;;;;;;;11.10;9.90;;;;;;;;;;5071875;28;20480;-95
2021/03/31 08:27:18;;;;;;;12.47;10.80;;;;;;;;;;5075845;28;20446;-93
2021/03/31 08:29:48;;;;;;;13.50;11.27;;;;;;;;;;5078291;28;20496;-93
2021/03/31 08:32:14;;;;;;;12.47;10.10;;;;;;;;;;5074268;28;20483;-95
2021/03/31 08:34:42;;;;;;;13.80;11.30;;;;;;;;;;5065831;28;20498;-93
2021/03/31 08:37:17;;;;;;;13.37;10.00;;;;;;;;;;5077510;28;20515;-93
2021/03/31 08:39:43;;;;;;;11.37;9.70;;;;;;;;;;5071492;28;20455;-96
2021/03/31 08:42:09;;;;;;;12.13;9.33;;;;;;;;;;5071616;28;20457;-95
2021/03/31 08:44:36;;;;;;;8.73;7.87;;;;;;;;;;5058436;28;20442;-93
2021/03/31 08:47:10;;;;;;;10.10;9.07;;;;;;;;;;5071474;28;20463;-94
2021/03/31 08:49:36;;;;;;;11.03;9.40;;;;;;;;;;5076505;28;20464;-93
2021/03/31 08:52:03;;;;;;;11.00;9.33;;;;;;;;;;5068806;28;20476;-96
2021/03/31 08:54:33;;;;;;;9.17;8.17;;;;;;;;;;5086968;28;20460;-93
2021/03/31 08:57:00;;;;;;;10.13;8.70;;;;;;;;;;5068588;28;20450;-93
2021/03/31 08:59:29;;;;;;;11.90;9.50;;;;;;;;;;5071857;28;20817;-95
2021/03/31 09:01:55;;;;;;;9.30;7.30;;;;;;;;;;5080332;28;20484;-94
2021/03/31 09:04:24;;;;;;;8.73;7.80;;;;;;;;;;5074818;28;20480;-94
2021/03/31 09:06:51;;;;;;;12.60;8.50;;;;;;;;;;5071399;28;20454;-93
2021/03/31 09:09:16;;;;;;;9.03;7.63;;;;;;;;;;5076202;28;20523;-94
2021/03/31 09:11:43;;;;;;;9.40;8.20;;;;;;;;;;5065729;28;20441;-93
2021/03/31 09:14:18;;;;;;;11.97;8.70;;;;;;;;;;5075847;28;20489;-94
2021/03/31 09:16:53;;;;;;;9.90;8.70;;;;;;;;;;5070498;28;20457;-96
2021/03/31 09:19:19;;;;;;;10.23;8.60;;;;;;;;;;5071314;28;20455;-95
2021/03/31 09:21:46;;;;;;;9.33;8.07;;;;;;;;;;5066735;28;20870;-94
2021/03/31 09:24:15;;;;;;;11.00;8.50;;;;;;;;;;5076636;28;20441;-93
2021/03/31 09:26:41;;;;;;;9.57;7.97;;;;;;;;;;5070870;28;20485;-94
2021/03/31 09:29:14;;;;;;;9.53;8.00;;;;;;;;;;5076655;28;20477;-96
2021/03/31 09:31:40;;;;;;;8.60;7.77;;;;;;;;;;5065654;28;20458;-95
2021/03/31 09:34:06;;;;;;;8.87;7.63;;;;;;;;;;5074260;28;20488;-95
2021/03/31 09:36:32;;;;;;;10.20;7.93;;;;;;;;;;5081548;28;20526;-92
2021/03/31 09:38:59;;;;;;;10.33;7.50;;;;;;;;;;5075840;28;20451;-92
2021/03/31 09:41:26;;;;;;;8.87;7.90;;;;;;;;;;5073261;28;20460;-93
2021/03/31 09:43:51;;;;;;;8.60;7.80;;;;;;;;;;5076359;28;20457;-93
2021/03/31 09:46:22;;;;;;;9.40;8.50;;;;;;;;;;5073316;28;20453;-94
2021/03/31 09:48:49;;;;;;;8.83;7.93;;;;;;;;;;5067476;28;20445;-93
2021/03/31 09:51:15;;;;;;;8.60;7.80;;;;;;;;;;5072054;28;20438;-94
2021/03/31 09:53:43;;;;;;;9.30;8.40;;;;;;;;;;5066064;28;20460;-96
2021/03/31 09:56:10;;;;;;;10.17;8.00;;;;;;;;;;5082994;28;20474;-95
2021/03/31 09:58:37;;;;;;;11.33;8.90;;;;;;;;;;5062371;28;20473;-96
2021/03/31 10:01:03;;;;;;;9.60;8.27;;;;;;;;;;5068955;28;20446;-96
2021/03/31 10:03:30;;;;;;;9.20;8.30;;;;;;;;;;5055000;28;20503;-93
2021/03/31 10:05:56;;;;;;;8.87;7.93;;;;;;;;;;5060543;28;20460;-95
2021/03/31 10:08:23;;;;;;;9.43;8.40;;;;;;;;;;5068184;28;20458;-92
2021/03/31 10:10:49;;;;;;;9.07;8.20;;;;;;;;;;5069102;28;20473;-93
2021/03/31 10:13:17;;;;;;;9.10;8.30;;;;;;;;;;5068854;28;20445;-94
2021/03/31 10:15:46;;;;;;;9.60;8.60;;;;;;;;;;5073610;28;20486;-93
2021/03/31 10:18:12;;;;;;;8.13;7.40;;;;;;;;;;5072970;28;20453;-94
2021/03/31 10:20:45;;;;;;;8.70;7.60;;;;;;;;;;5075203;28;20459;-93
2021/03/31 10:23:21;;;;;;;9.80;8.63;;;;;;;;;;5080391;28;20451;-95
2021/03/31 10:25:47;;;;;;;14.50;9.80;;;;;;;;;;5107869;22;20550;-93
2021/03/31 10:28:33;;;;;;;10.50;9.30;;;;;;;;;;5080754;28;20485;-95
2021/03/31 10:31:14;;;;;;;11.20;8.87;;;;;;;;;;5053626;28;20455;-94
2021/03/31 10:33:43;;;;;;;16.27;9.53;;;;;;;;;;5074077;28;20490;-93
2021/03/31 10:36:12;;;;;;;9.87;8.00;;;;;;;;;;5073899;28;20515;-93
2021/03/31 10:38:45;;;;;;;19.70;9.40;;;;;;;;;;5080842;28;20457;-94
2021/03/31 10:41:38;;;;;;;9.50;8.20;;;;;;;;;;5071468;28;20467;-96
2021/03/31 10:47:13;;;;;;;13.23;9.20;;;;;;;;;;5064192;28;20495;-96
2021/03/31 10:49:44;;;;;;;15.37;9.70;;;;;;;;;;5079081;28;20455;-94
2021/03/31 10:52:15;;;;;;;12.07;8.70;;;;;;;;;;5070942;28;20510;-96
2021/03/31 10:54:42;;;;;;;9.07;8.17;;;;;;;;;;5071746;28;20990;-95
2021/03/31 10:57:10;;;;;;;11.30;8.60;;;;;;;;;;5080121;28;20441;-94
2021/03/31 10:59:37;;;;;;;11.00;9.20;;;;;;;;;;5082880;28;20478;-93
2021/03/31 11:02:03;;;;;;;10.07;9.07;;;;;;;;;;5082773;28;20466;-96
2021/03/31 11:04:30;;;;;;;9.23;8.30;;;;;;;;;;5074292;28;20445;-95
2021/03/31 11:07:00;;;;;;;11.10;9.80;;;;;;;;;;5076604;28;20542;-94
2021/03/31 11:09:29;;;;;;;10.80;9.23;;;;;;;;;;5069955;28;20484;-96
2021/03/31 11:11:55;;;;;;;11.90;8.23;;;;;;;;;;5072350;28;20510;-96
2021/03/31 11:14:21;;;;;;;10.13;9.13;;;;;;;;;;5082170;28;20470;-93
2021/03/31 11:16:51;;;;;;;9.90;9.00;;;;;;;;;;5086383;28;20443;-96
2021/03/31 11:19:31;;;;;;;12.60;9.33;;;;;;;;;;5084038;28;20523;-96
2021/03/31 11:27:42;;;;;;;9.33;8.30;;;;;;;;;;5082555;22;20455;-96
2021/03/31 11:30:10;;;;;;;10.07;8.20;;;;;;;;;;5075672;28;20470;-96
2021/03/31 11:32:36;;;;;;;10.63;8.33;;;;;;;;;;5077852;28;20469;-96
2021/03/31 11:35:02;;;;;;;15.23;9.00;;;;;;;;;;5063453;28;20586;-96
2021/03/31 11:37:29;;;;;;;9.90;8.63;;;;;;;;;;5065263;28;20429;-96
2021/03/31 11:39:58;;;;;;;13.13;8.60;;;;;;;;;;5078196;28;20454;-96
2021/03/31 11:42:24;;;;;;;10.60;8.53;;;;;;;;;;5072689;28;20459;-95
2021/03/31 11:44:53;;;;;;;12.10;8.60;;;;;;;;;;5063689;28;20445;-96
2021/03/31 11:47:26;;;;;;;10.40;8.70;;;;;;;;;;5087123;28;20471;-95
2021/03/31 11:49:54;;;;;;;9.20;8.40;;;;;;;;;;5060163;28;20498;-95
2021/03/31 11:52:22;;;;;;;16.27;9.73;;;;;;;;;;5075842;28;20448;-95
2021/03/31 11:54:50;;;;;;;16.33;9.00;;;;;;;;;;5074721;28;20517;-96
2021/03/31 11:59:58;;;;;;;11.20;9.43;;;;;;;;;;5091441;22;20493;-96
2021/03/31 12:02:24;;;;;;;15.87;10.53;;;;;;;;;;5071974;28;20936;-96
2021/03/31 12:04:50;;;;;;;9.30;8.40;;;;;;;;;;5077018;28;20457;-91
2021/03/31 12:07:19;;;;;;;15.27;8.63;;;;;;;;;;5069392;28;20450;-95
2021/03/31 12:09:49;;;;;;;14.00;9.87;;;;;;;;;;5054413;28;20468;-94
2021/03/31 12:12:17;;;;;;;9.83;9.00;;;;;;;;;;5076319;28;20450;-95
2021/03/31 12:14:44;;;;;;;14.33;8.40;;;;;;;;;;5079702;28;20486;-95
2021/03/31 12:17:15;;;;;;;9.37;8.33;;;;;;;;;;5076968;28;20482;-96
2021/03/31 12:19:41;;;;;;;11.13;10.00;;;;;;;;;;5076663;28;20457;-96
2021/03/31 12:22:09;;;;;;;9.90;8.90;;;;;;;;;;5078749;28;20468;-96
2021/03/31 12:24:35;;;;;;;16.03;9.50;;;;;;;;;;5070680;28;20454;-95
2021/03/31 12:27:04;;;;;;;9.57;8.23;;;;;;;;;;5075185;28;20457;-93
2021/03/31 12:29:30;;;;;;;9.13;8.00;;;;;;;;;;5072082;28;20475;-95
2021/03/31 12:31:59;;;;;;;8.43;7.53;;;;;;;;;;5067636;28;20439;-96
2021/03/31 12:34:28;;;;;;;9.20;8.23;;;;;;;;;;5068223;28;20527;-95
2021/03/31 12:36:54;;;;;;;9.40;8.50;;;;;;;;;;5085748;28;20444;-96
2021/03/31 12:39:20;;;;;;;13.20;10.03;;;;;;;;;;5076912;28;20463;-94
2021/03/31 12:41:46;;;;;;;13.73;7.77;;;;;;;;;;5090112;28;20514;-95
2021/03/31 12:44:13;;;;;;;10.90;8.50;;;;;;;;;;5078925;28;20478;-95
2021/03/31 12:46:40;;;;;;;17.07;10.70;;;;;;;;;;5083425;28;20435;-95
2021/03/31 12:49:08;;;;;;;9.17;8.20;;;;;;;;;;5085531;28;20857;-94
2021/03/31 12:51:34;;;;;;;14.57;10.50;;;;;;;;;;5088375;28;20436;-94
2021/03/31 12:54:09;;;;;;;17.07;8.30;;;;;;;;;;5079714;28;20535;-96
2021/03/31 12:56:35;;;;;;;12.47;8.70;;;;;;;;;;5073076;28;20443;-96
2021/03/31 12:59:02;;;;;;;9.67;7.80;;;;;;;;;;5079987;28;20485;-96
2021/03/31 13:01:28;;;;;;;14.10;8.80;;;;;;;;;;5071209;28;20460;-96
2021/03/31 13:03:54;;;;;;;11.00;8.93;;;;;;;;;;5090682;28;20441;-96
2021/03/31 13:06:26;;;;;;;25.70;10.03;;;;;;;;;;5075951;28;20458;-94
2021/03/31 13:08:53;;;;;;;10.53;8.53;;;;;;;;;;5083626;28;20477;-94
2021/03/31 13:11:21;;;;;;;17.67;9.00;;;;;;;;;;5078289;28;20473;-94
2021/03/31 13:13:59;;;;;;;14.37;8.40;;;;;;;;;;5079628;28;20529;-94
2021/03/31 13:16:36;;;;;;;15.93;8.57;;;;;;;;;;5079474;28;20531;-96
2021/03/31 13:22:16;;;;;;;11.47;8.03;;;;;;;;;;5078960;28;20444;-94
2021/03/31 13:24:50;;;;;;;12.17;9.13;;;;;;;;;;5071514;28;20463;-95
2021/03/31 13:32:50;;;;;;;15.73;8.10;;;;;;;;;;5058339;28;20457;-94
2021/03/31 13:35:20;;;;;;;20.60;8.73;;;;;;;;;;5085879;28;20514;-93
2021/03/31 13:37:49;;;;;;;9.90;8.90;;;;;;;;;;5070013;28;20461;-94
2021/03/31 13:40:18;;;;;;;12.87;8.80;;;;;;;;;;5062905;28;20448;-92
2021/03/31 13:42:44;;;;;;;10.90;7.73;;;;;;;;;;5079748;28;20461;-96
2021/03/31 13:45:11;;;;;;;12.67;7.23;;;;;;;;;;5073182;28;21292;-95
2021/03/31 13:47:42;;;;;;;9.83;7.33;;;;;;;;;;5081360;28;20445;-96
2021/03/31 13:50:11;;;;;;;9.33;7.47;;;;;;;;;;5086703;28;20455;-93
2021/03/31 13:52:43;;;;;;;9.33;8.07;;;;;;;;;;5063758;28;20495;-95
2021/03/31 13:55:13;;;;;;;11.10;8.07;;;;;;;;;;5064223;28;20477;-92
2021/03/31 13:57:42;;;;;;;11.77;7.90;;;;;;;;;;5085679;28;20434;-95
2021/03/31 14:00:10;;;;;;;8.70;7.33;;;;;;;;;;5081390;28;20480;-96
2021/03/31 14:02:36;;;;;;;8.30;7.13;;;;;;;;;;5079743;28;20468;-95
2021/03/31 14:05:02;;;;;;;14.20;8.60;;;;;;;;;;5079240;28;20527;-96
2021/03/31 14:07:28;;;;;;;13.37;8.40;;;;;;;;;;5072538;28;20454;-94
2021/03/31 14:09:54;;;;;;;12.70;8.70;;;;;;;;;;5069658;28;20457;-94
2021/03/31 14:12:22;;;;;;;12.73;7.60;;;;;;;;;;5064821;28;20466;-96
2021/03/31 14:14:48;;;;;;;8.83;7.57;;;;;;;;;;5073315;28;20552;-94
2021/03/31 14:17:15;;;;;;;8.70;7.77;;;;;;;;;;5069313;28;20454;-96
2021/03/31 14:19:43;;;;;;;13.33;8.30;;;;;;;;;;5076436;28;20458;-94
2021/03/31 14:22:10;;;;;;;10.10;7.67;;;;;;;;;;5060639;28;20451;-96
2021/03/31 14:24:36;;;;;;;10.30;6.90;;;;;;;;;;5077410;28;20505;-95
2021/03/31 14:27:03;;;;;;;12.00;8.03;;;;;;;;;;5066327;28;20533;-93
2021/03/31 14:29:30;;;;;;;9.53;7.57;;;;;;;;;;5065834;28;20534;-96
2021/03/31 14:31:57;;;;;;;9.10;7.93;;;;;;;;;;5076296;28;21205;-95
2021/03/31 14:34:23;;;;;;;11.03;7.33;;;;;;;;;;5075720;28;20466;-93
2021/03/31 14:36:49;;;;;;;8.63;7.40;;;;;;;;;;5065906;28;20441;-95
2021/03/31 14:39:16;;;;;;;12.13;7.60;;;;;;;;;;5045842;28;20450;-96
2021/03/31 14:41:42;;;;;;;8.70;7.37;;;;;;;;;;5060826;28;20450;-96
2021/03/31 14:44:09;;;;;;;12.23;7.47;;;;;;;;;;5063275;28;20461;-94
2021/03/31 14:46:36;;;;;;;9.97;7.83;;;;;;;;;;5063916;28;20441;-92
2021/03/31 14:49:03;;;;;;;11.50;9.00;;;;;;;;;;5074952;28;20466;-95
2021/03/31 14:51:32;;;;;;;8.53;6.77;;;;;;;;;;5074757;28;20446;-96
2021/03/31 14:59:35;;;;;;;10.40;7.17;;;;;;;;;;5078712;28;20475;-94
2021/03/31 15:02:04;;;;;;;7.50;6.80;;;;;;;;;;5082056;28;20457;-92